Time;durP1;ratioP1;P1;durP2;ratioP2;P2;SDS_P1;SDS_P2;PMS_P1;PMS_P2;Temp;Humidity;BMP_temperature;BMP_pressure;BME280_temperature;BME280_humidity;BME280_pressure;Samples;Min_cycle;Max_cycle;Signal;HPM_P1;HPM_P2
2023/06/06 00:02:21;;;;;;;8.30;5.35;;;;;;;15.67;61.17;102344.94;5092096;28;20039;-46
2023/06/06 00:04:49;;;;;;;9.05;5.47;;;;;;;15.60;61.33;102348.31;5091063;28;20051;-44
2023/06/06 00:07:16;;;;;;;10.07;5.60;;;;;;;15.62;61.36;102346.56;5092154;28;20114;-44
2023/06/06 00:09:42;;;;;;;11.60;5.97;;;;;;;15.57;61.37;102348.25;5090135;28;20036;-47
2023/06/06 00:12:12;;;;;;;9.15;5.72;;;;;;;15.50;61.50;102342.81;5092009;28;20032;-47
2023/06/06 00:14:38;;;;;;;9.80;5.65;;;;;;;15.52;61.50;102349.00;5090522;28;20032;-48
2023/06/06 00:17:03;;;;;;;9.13;5.40;;;;;;;15.66;61.18;102343.16;5091722;28;20035;-48
2023/06/06 00:19:29;;;;;;;10.02;5.60;;;;;;;15.70;60.65;102344.94;5091234;28;20036;-47
2023/06/06 00:21:54;;;;;;;12.95;6.20;;;;;;;15.42;61.67;102345.34;5091842;28;20032;-48
2023/06/06 00:24:20;;;;;;;12.75;6.07;;;;;;;15.37;61.59;102342.63;5091245;28;20024;-46
2023/06/06 00:26:45;;;;;;;11.95;6.20;;;;;;;15.51;61.26;102344.59;5091056;28;20039;-45
2023/06/06 00:29:10;;;;;;;10.40;5.82;;;;;;;15.54;60.89;102339.44;5091831;28;20032;-45
2023/06/06 00:31:36;;;;;;;10.45;5.72;;;;;;;15.49;61.23;102341.06;5091251;28;20063;-47
2023/06/06 00:34:01;;;;;;;10.27;5.28;;;;;;;15.42;60.98;102337.47;5091187;28;20056;-46
2023/06/06 00:36:26;;;;;;;8.75;5.68;;;;;;;15.44;61.34;102339.22;5090942;28;20032;-46
2023/06/06 00:38:52;;;;;;;9.65;5.60;;;;;;;15.47;61.25;102348.94;5091394;28;20081;-46
2023/06/06 00:41:17;;;;;;;9.93;5.63;;;;;;;15.32;61.71;102341.66;5091618;28;20093;-47
2023/06/06 00:43:44;;;;;;;10.95;5.85;;;;;;;15.11;62.56;102346.53;5090410;28;20101;-48
2023/06/06 00:46:10;;;;;;;10.60;5.82;;;;;;;15.20;62.07;102344.06;5091130;28;20521;-48
2023/06/06 00:48:36;;;;;;;10.05;5.55;;;;;;;15.27;61.77;102339.81;5090641;28;20119;-47
2023/06/06 00:51:01;;;;;;;10.95;5.68;;;;;;;15.25;61.70;102341.50;5073200;28;20592;-46
2023/06/06 00:53:27;;;;;;;11.57;5.78;;;;;;;15.35;61.43;102346.97;5090300;28;20038;-47
2023/06/06 00:55:52;;;;;;;9.32;5.78;;;;;;;15.20;61.93;102340.56;5091098;28;20036;-48
2023/06/06 00:58:18;;;;;;;11.23;5.90;;;;;;;15.24;61.74;102347.66;5091066;28;20120;-45
2023/06/06 01:00:44;;;;;;;8.52;5.13;;;;;;;15.38;61.06;102341.75;5090584;28;20059;-46
2023/06/06 01:03:09;;;;;;;11.38;5.90;;;;;;;15.24;61.53;102343.28;5091053;28;20119;-45
2023/06/06 01:05:38;;;;;;;9.48;5.13;;;;;;;15.27;61.59;102345.94;5089754;28;20482;-51
2023/06/06 01:08:04;;;;;;;8.73;5.70;;;;;;;15.16;62.05;102344.00;5090821;28;20040;-48
2023/06/06 01:10:34;;;;;;;11.48;5.85;;;;;;;15.11;62.15;102338.66;5090460;28;20120;-49
2023/06/06 01:13:18;;;;;;;11.02;5.45;;;;;;;15.18;61.85;102342.28;5090742;28;20126;-45
2023/06/06 01:15:57;;;;;;;12.40;5.70;;;;;;;15.21;61.76;102337.97;5090450;28;20150;-47
2023/06/06 01:18:23;;;;;;;9.98;5.32;;;;;;;15.15;61.91;102336.97;5090728;28;20039;-45
2023/06/06 01:20:49;;;;;;;10.57;5.60;;;;;;;15.03;62.52;102333.25;5089939;28;20038;-44
2023/06/06 01:23:15;;;;;;;13.27;5.80;;;;;;;15.18;61.81;102339.66;5090567;28;20032;-46
2023/06/06 01:25:42;;;;;;;10.07;5.53;;;;;;;15.20;61.85;102335.31;5089999;28;20040;-46
2023/06/06 01:28:13;;;;;;;8.88;5.65;;;;;;;15.29;61.29;102336.38;5090380;28;20032;-46
2023/06/06 01:30:40;;;;;;;9.10;5.55;;;;;;;15.02;62.24;102333.22;5090112;28;20114;-46
2023/06/06 01:33:20;;;;;;;11.50;5.65;;;;;;;15.03;62.54;102340.25;5090570;28;20494;-49
2023/06/06 01:35:59;;;;;;;8.82;5.43;;;;;;;14.99;62.66;102333.19;5089904;28;20034;-47
2023/06/06 01:38:30;;;;;;;9.15;5.53;;;;;;;15.11;62.26;102329.91;5089988;28;20421;-47
2023/06/06 01:40:58;;;;;;;12.07;5.55;;;;;;;15.14;62.22;102330.81;5090671;28;20062;-46
2023/06/06 01:43:25;;;;;;;8.93;5.38;;;;;;;15.05;62.31;102332.41;5089452;28;20086;-45
2023/06/06 01:45:53;;;;;;;11.32;5.80;;;;;;;15.11;62.29;102325.53;5090019;28;20040;-46
2023/06/06 01:48:19;;;;;;;10.75;5.70;;;;;;;15.20;61.80;102333.56;5090098;28;20059;-45
2023/06/06 01:50:45;;;;;;;10.25;5.70;;;;;;;15.16;61.77;102328.22;5089625;28;20060;-45
2023/06/06 01:53:10;;;;;;;8.98;5.40;;;;;;;15.09;62.31;102329.88;5090348;28;20058;-47
2023/06/06 01:55:36;;;;;;;9.45;5.80;;;;;;;15.02;62.38;102335.84;5087864;28;20048;-47
2023/06/06 01:58:03;;;;;;;9.90;5.40;;;;;;;14.98;62.79;102324.44;5090269;28;20481;-46
2023/06/06 02:00:28;;;;;;;13.20;5.85;;;;;;;15.03;62.31;102335.00;5089582;28;20032;-46
2023/06/06 02:02:54;;;;;;;10.38;5.30;;;;;;;15.14;62.05;102327.31;5089842;28;20039;-47
2023/06/06 02:05:20;;;;;;;9.98;5.30;;;;;;;15.04;62.35;102326.28;5089246;28;20151;-46
2023/06/06 02:07:46;;;;;;;9.93;5.50;;;;;;;14.95;62.79;102326.09;5089245;28;20488;-47
2023/06/06 02:10:11;;;;;;;13.45;6.13;;;;;;;14.92;62.95;102323.44;5089970;28;20124;-46
2023/06/06 02:12:37;;;;;;;12.95;5.85;;;;;;;14.98;62.85;102315.66;5089266;28;20347;-44
2023/06/06 02:15:04;;;;;;;10.35;5.40;;;;;;;14.79;63.25;102321.41;5089226;28;20036;-46
2023/06/06 02:17:30;;;;;;;8.75;5.30;;;;;;;14.92;62.99;102328.69;5089217;28;20032;-45
2023/06/06 02:19:55;;;;;;;13.38;5.90;;;;;;;14.94;62.77;102322.56;5089515;28;20505;-45
2023/06/06 02:22:21;;;;;;;8.45;5.03;;;;;;;14.73;63.31;102329.19;5089829;28;20040;-45
2023/06/06 02:24:46;;;;;;;13.23;5.35;;;;;;;14.85;63.11;102326.78;5088413;28;20055;-48
2023/06/06 02:27:13;;;;;;;10.63;5.80;;;;;;;14.91;62.88;102324.28;5089510;28;20059;-46
2023/06/06 02:29:38;;;;;;;9.25;5.40;;;;;;;14.88;63.05;102332.97;5089194;28;20035;-45
2023/06/06 02:32:04;;;;;;;11.35;5.60;;;;;;;14.85;63.46;102329.41;5088581;28;20024;-48
2023/06/06 02:34:29;;;;;;;10.40;5.45;;;;;;;14.87;63.39;102333.84;5088375;28;20070;-47
2023/06/06 02:36:57;;;;;;;11.27;5.78;;;;;;;14.92;63.36;102331.31;5089290;28;20375;-48
2023/06/06 02:39:23;;;;;;;9.63;5.50;;;;;;;14.89;63.50;102326.88;5089411;28;20093;-46
2023/06/06 02:41:50;;;;;;;11.13;5.60;;;;;;;14.97;63.23;102325.28;5089171;28;20494;-46
2023/06/06 02:44:17;;;;;;;12.13;5.78;;;;;;;14.94;63.48;102325.19;5089072;28;20032;-48
2023/06/06 02:46:42;;;;;;;10.35;5.68;;;;;;;15.09;63.00;102324.63;5088551;28;20481;-46
2023/06/06 02:49:08;;;;;;;11.75;5.18;;;;;;;15.11;62.88;102320.28;5070985;28;20070;-48
2023/06/06 02:51:33;;;;;;;7.60;5.18;;;;;;;15.02;63.14;102330.59;5108750;22;20044;-44
2023/06/06 02:53:59;;;;;;;15.52;6.18;;;;;;;14.90;63.97;102325.13;5089704;28;20039;-46
2023/06/06 02:56:25;;;;;;;12.45;5.70;;;;;;;15.17;62.87;102325.66;5095969;28;20044;-46
2023/06/06 02:58:52;;;;;;;10.73;5.43;;;;;;;15.24;62.55;102324.91;5094832;28;20036;-47
2023/06/06 03:01:20;;;;;;;9.75;5.45;;;;;;;15.11;62.83;102324.66;5089577;28;20036;-44
2023/06/06 03:03:46;;;;;;;9.73;5.22;;;;;;;15.10;63.11;102329.00;5088675;28;20035;-44
2023/06/06 03:06:12;;;;;;;9.55;5.30;;;;;;;15.27;62.33;102337.19;5089429;28;20032;-46
2023/06/06 03:08:42;;;;;;;8.70;5.40;;;;;;;15.26;62.46;102328.41;5088749;28;20386;-46
2023/06/06 03:11:07;;;;;;;11.70;5.55;;;;;;;15.08;63.02;102335.97;5089393;28;20028;-51
2023/06/06 03:13:32;;;;;;;11.68;5.30;;;;;;;15.12;63.36;102335.19;5088796;28;20093;-46
2023/06/06 03:15:57;;;;;;;9.50;5.25;;;;;;;15.05;63.27;102325.44;5089462;28;20520;-45
2023/06/06 03:18:24;;;;;;;11.57;5.63;;;;;;;15.31;62.76;102333.75;5089375;28;20075;-45
2023/06/06 03:20:56;;;;;;;9.70;5.15;;;;;;;15.38;62.45;102336.50;5089253;28;20039;-47
2023/06/06 03:23:22;;;;;;;11.30;5.70;;;;;;;15.09;63.15;102335.13;5089057;28;20119;-44
2023/06/06 03:25:51;;;;;;;9.73;5.30;;;;;;;15.24;63.09;102337.16;5086605;28;20052;-45
2023/06/06 03:28:18;;;;;;;8.82;4.95;;;;;;;15.30;62.82;102334.63;5090606;28;20064;-45
2023/06/06 03:30:48;;;;;;;7.20;4.90;;;;;;;15.43;62.53;102340.09;5089967;28;20035;-47
2023/06/06 03:33:14;;;;;;;10.20;5.22;;;;;;;15.32;62.64;102339.03;5090186;28;20044;-46
2023/06/06 03:35:40;;;;;;;9.05;4.88;;;;;;;15.54;62.17;102339.44;5089579;28;20035;-44
2023/06/06 03:38:05;;;;;;;8.80;5.10;;;;;;;15.39;62.34;102340.91;5090284;28;20024;-44
2023/06/06 03:40:31;;;;;;;9.07;5.35;;;;;;;15.54;61.95;102331.56;5090080;28;20051;-48
2023/06/06 03:42:56;;;;;;;11.60;5.10;;;;;;;15.51;61.92;102331.44;5090399;28;20115;-43
2023/06/06 03:45:22;;;;;;;12.70;5.07;;;;;;;15.62;61.97;102330.78;5093598;28;20059;-46
2023/06/06 03:47:48;;;;;;;9.15;5.10;;;;;;;15.33;62.53;102332.91;5093581;28;20443;-46
2023/06/06 03:50:14;;;;;;;8.52;5.05;;;;;;;15.62;61.83;102332.53;5093579;28;20497;-45
2023/06/06 03:52:42;;;;;;;8.52;5.10;;;;;;;15.71;61.76;102337.97;5092311;28;20119;-48
2023/06/06 03:55:09;;;;;;;9.15;5.25;;;;;;;15.70;62.01;102338.81;5092574;28;20028;-47
2023/06/06 03:57:36;;;;;;;9.30;5.18;;;;;;;15.62;62.01;102337.78;5092581;28;20378;-47
2023/06/06 04:00:04;;;;;;;12.50;5.45;;;;;;;15.80;61.64;102330.19;5092947;28;20040;-44
2023/06/06 04:02:31;;;;;;;9.57;5.30;;;;;;;15.64;62.14;102339.59;5092332;28;20462;-47
2023/06/06 04:05:01;;;;;;;13.60;5.50;;;;;;;15.65;61.58;102340.50;5090876;28;20375;-46
2023/06/06 04:07:28;;;;;;;12.35;5.60;;;;;;;15.47;62.09;102337.53;5092302;28;20028;-46
2023/06/06 04:09:53;;;;;;;12.13;5.60;;;;;;;15.60;61.70;102334.28;5092717;28;20082;-45
2023/06/06 04:12:19;;;;;;;12.68;5.40;;;;;;;15.77;61.22;102336.31;5092230;28;20431;-44
2023/06/06 04:14:44;;;;;;;10.05;5.63;;;;;;;15.85;60.95;102330.28;5091291;28;20032;-45
2023/06/06 04:17:10;;;;;;;9.07;5.53;;;;;;;15.83;61.09;102328.50;5092494;28;20059;-44
2023/06/06 04:19:36;;;;;;;9.80;5.65;;;;;;;15.68;61.48;102333.53;5091475;28;20046;-44
2023/06/06 04:22:02;;;;;;;11.07;5.70;;;;;;;15.74;61.18;102330.97;5092274;28;20036;-44
2023/06/06 04:24:28;;;;;;;10.65;5.50;;;;;;;15.93;60.66;102334.78;5091344;28;20035;-45
2023/06/06 04:26:53;;;;;;;11.65;5.57;;;;;;;15.92;60.26;102335.63;5089720;28;20046;-49
2023/06/06 04:29:19;;;;;;;10.38;5.55;;;;;;;16.00;60.31;102331.38;5092097;28;20044;-51
2023/06/06 04:31:44;;;;;;;9.52;5.65;;;;;;;15.94;60.41;102336.56;5091216;28;20123;-49
2023/06/06 04:34:10;;;;;;;10.00;5.65;;;;;;;15.98;60.10;102332.25;5093085;28;20035;-43
2023/06/06 04:36:40;;;;;;;11.70;5.80;;;;;;;16.14;59.81;102328.94;5093225;28;20036;-46
2023/06/06 04:39:06;;;;;;;10.07;5.43;;;;;;;16.23;59.80;102329.06;5093223;28;20034;-49
2023/06/06 04:41:33;;;;;;;12.80;5.60;;;;;;;16.22;59.46;102329.94;5093357;28;20028;-49
2023/06/06 04:44:01;;;;;;;10.98;5.47;;;;;;;15.79;60.87;102337.22;5093857;28;20028;-45
2023/06/06 04:46:30;;;;;;;10.18;5.60;;;;;;;15.90;60.60;102329.50;5092684;28;20046;-45
2023/06/06 04:48:57;;;;;;;12.32;5.63;;;;;;;16.07;60.31;102332.34;5092251;28;20367;-49
2023/06/06 04:51:30;;;;;;;11.00;5.78;;;;;;;15.94;60.36;102333.03;5091955;28;20036;-45
2023/06/06 04:54:06;;;;;;;13.60;5.72;;;;;;;15.90;60.28;102340.00;5093056;28;20036;-46
2023/06/06 04:56:31;;;;;;;10.90;5.38;;;;;;;16.02;60.37;102332.28;5095275;28;20123;-44
2023/06/06 04:59:05;;;;;;;10.13;5.43;;;;;;;15.82;61.03;102333.75;5096259;28;20117;-48
2023/06/06 05:01:31;;;;;;;12.88;5.47;;;;;;;16.22;59.76;102332.56;5091424;28;20032;-46
2023/06/06 05:03:56;;;;;;;11.75;5.20;;;;;;;16.19;60.14;102340.41;5090935;28;20034;-49
2023/06/06 05:06:22;;;;;;;12.45;5.45;;;;;;;16.37;59.59;102334.50;5091065;28;20033;-44
2023/06/06 05:08:48;;;;;;;11.90;5.40;;;;;;;16.35;59.42;102329.22;5090676;28;20462;-44
2023/06/06 05:11:14;;;;;;;11.90;5.38;;;;;;;16.38;59.24;102329.28;5091437;28;20032;-44
2023/06/06 05:13:39;;;;;;;8.77;5.38;;;;;;;16.20;60.13;102329.91;5090265;28;20063;-46
2023/06/06 05:16:05;;;;;;;10.95;5.68;;;;;;;16.41;59.71;102331.03;5091262;28;20035;-47
2023/06/06 05:18:31;;;;;;;10.77;5.32;;;;;;;16.62;59.39;102326.06;5090830;28;20507;-48
2023/06/06 05:21:02;;;;;;;9.30;5.43;;;;;;;16.77;58.69;102334.13;5091618;28;20150;-44
2023/06/06 05:23:31;;;;;;;13.07;5.57;;;;;;;16.55;59.29;102327.72;5090896;28;20114;-44
2023/06/06 05:25:57;;;;;;;10.38;5.75;;;;;;;16.68;59.27;102339.31;5091103;28;20032;-47
2023/06/06 05:28:24;;;;;;;12.52;6.65;;;;;;;16.42;59.85;102332.81;5090892;28;20032;-46
2023/06/06 05:30:52;;;;;;;13.50;6.60;;;;;;;16.35;60.27;102331.84;5090842;28;20032;-44
2023/06/06 05:33:17;;;;;;;11.20;5.93;;;;;;;16.70;59.52;102331.44;5090963;28;20027;-43
2023/06/06 05:35:42;;;;;;;11.77;6.13;;;;;;;16.81;58.77;102332.44;5090822;28;20032;-45
2023/06/06 05:38:08;;;;;;;12.48;5.85;;;;;;;16.91;59.04;102335.19;5091112;28;20458;-48
2023/06/06 05:40:33;;;;;;;12.65;6.32;;;;;;;16.97;58.03;102332.59;5090430;28;20028;-45
2023/06/06 05:42:59;;;;;;;13.63;5.70;;;;;;;17.08;58.05;102332.72;5091635;28;20058;-45
2023/06/06 05:45:24;;;;;;;13.63;5.90;;;;;;;17.14;57.59;102338.03;5091643;28;20036;-47
2023/06/06 05:47:49;;;;;;;12.48;5.85;;;;;;;17.41;57.24;102340.06;5092632;28;20028;-44
2023/06/06 05:50:15;;;;;;;10.50;5.55;;;;;;;17.56;57.10;102340.19;5090811;28;20040;-47
2023/06/06 05:52:41;;;;;;;11.40;5.55;;;;;;;17.86;56.05;102336.03;5091389;28;20040;-51
2023/06/06 05:55:07;;;;;;;10.15;6.18;;;;;;;18.01;55.38;102341.41;5092551;28;20039;-44
2023/06/06 05:57:33;;;;;;;12.13;5.80;;;;;;;18.41;54.60;102339.88;5091431;28;20063;-48
2023/06/06 06:00:00;;;;;;;12.32;5.97;;;;;;;18.43;53.51;102333.69;5090424;28;20063;-50
2023/06/06 06:02:28;;;;;;;11.20;5.90;;;;;;;19.30;53.67;102344.53;5089780;28;20086;-48
2023/06/06 06:04:56;;;;;;;10.95;5.85;;;;;;;19.99;49.05;102326.88;5089837;28;20040;-47
2023/06/06 06:07:22;;;;;;;13.60;5.90;;;;;;;20.65;48.13;102328.41;5090182;28;20081;-50
2023/06/06 06:09:47;;;;;;;13.70;5.80;;;;;;;21.16;46.13;102326.38;5089819;28;20040;-47
2023/06/06 06:12:13;;;;;;;14.30;6.05;;;;;;;20.75;46.34;102334.53;5090288;28;20036;-50
2023/06/06 06:14:38;;;;;;;11.55;6.20;;;;;;;21.30;46.02;102330.66;5089612;28;20678;-44
2023/06/06 06:17:03;;;;;;;14.85;6.07;;;;;;;22.31;42.78;102327.94;5090557;28;20054;-46
2023/06/06 06:19:29;;;;;;;13.00;6.00;;;;;;;21.61;44.36;102331.28;5087596;28;20161;-49
2023/06/06 06:21:54;;;;;;;12.57;6.32;;;;;;;21.61;43.54;102325.09;5090377;28;20028;-46
2023/06/06 06:24:19;;;;;;;10.85;5.60;;;;;;;22.62;42.86;102334.63;5089699;28;20032;-43
2023/06/06 06:26:45;;;;;;;14.30;6.15;;;;;;;22.51;41.41;102328.53;5089655;28;20127;-44
2023/06/06 06:29:10;;;;;;;13.13;5.72;;;;;;;22.29;41.63;102324.41;5089750;28;20043;-45
2023/06/06 06:31:35;;;;;;;13.68;5.82;;;;;;;22.25;42.46;102328.88;5089204;28;20040;-47
2023/06/06 06:34:01;;;;;;;10.35;6.03;;;;;;;21.89;43.75;102323.94;5090276;28;20214;-44
2023/06/06 06:36:26;;;;;;;13.27;6.15;;;;;;;22.16;42.54;102328.09;5090909;28;20036;-50
2023/06/06 06:38:51;;;;;;;12.32;5.75;;;;;;;23.14;40.60;102331.22;5090395;28;20122;-44
2023/06/06 06:41:17;;;;;;;13.27;6.18;;;;;;;22.74;41.75;102333.59;5090132;28;20032;-45
2023/06/06 06:43:42;;;;;;;9.93;6.32;;;;;;;22.35;42.22;102327.00;5089801;28;20036;-47
2023/06/06 06:46:08;;;;;;;12.48;6.03;;;;;;;23.15;40.80;102338.31;5090270;28;20558;-45
2023/06/06 06:48:33;;;;;;;15.40;6.63;;;;;;;22.99;41.45;102345.63;5089203;28;20036;-45
2023/06/06 06:50:59;;;;;;;13.32;6.38;;;;;;;23.82;39.88;102335.41;5089522;28;20123;-44
2023/06/06 06:53:25;;;;;;;14.18;6.30;;;;;;;24.06;38.68;102330.53;5088630;28;20032;-48
2023/06/06 06:55:52;;;;;;;12.65;6.40;;;;;;;23.04;41.10;102332.28;5090845;28;20123;-46
2023/06/06 06:58:25;;;;;;;10.65;6.38;;;;;;;23.06;41.17;102341.09;5092186;28;20056;-47
2023/06/06 07:00:53;;;;;;;14.32;6.45;;;;;;;22.94;41.64;102333.31;5090372;28;20597;-44
2023/06/06 07:03:20;;;;;;;10.48;5.68;;;;;;;24.11;39.09;102324.19;5087821;28;20031;-44
2023/06/06 07:05:46;;;;;;;10.10;5.93;;;;;;;24.35;37.65;102327.31;5087491;28;20040;-44
2023/06/06 07:08:11;;;;;;;10.23;5.57;;;;;;;24.50;38.28;102340.34;5089368;28;20055;-49
2023/06/06 07:10:36;;;;;;;13.18;6.35;;;;;;;24.89;37.20;102333.25;5088942;28;20066;-52
2023/06/06 07:13:01;;;;;;;11.10;6.65;;;;;;;24.87;37.26;102330.59;5089482;28;20028;-50
2023/06/06 07:15:27;;;;;;;8.85;5.60;;;;;;;25.99;35.44;102334.94;5088300;28;20032;-48
2023/06/06 07:17:53;;;;;;;14.88;5.90;;;;;;;26.25;35.01;102328.88;5089189;28;20496;-47
2023/06/06 07:20:21;;;;;;;10.60;6.07;;;;;;;26.07;35.36;102329.38;5092871;28;20032;-48
2023/06/06 07:22:47;;;;;;;10.63;5.70;;;;;;;26.23;34.75;102333.34;5092748;28;20025;-47
2023/06/06 07:25:14;;;;;;;12.13;5.78;;;;;;;26.50;34.47;102332.59;5092630;28;20073;-50
2023/06/06 07:27:39;;;;;;;9.75;5.78;;;;;;;26.44;34.27;102332.78;5092899;28;20608;-47
2023/06/06 07:30:12;;;;;;;11.77;6.53;;;;;;;25.89;35.10;102325.41;5093643;28;20024;-47
2023/06/06 07:32:43;;;;;;;14.13;6.43;;;;;;;24.98;36.98;102322.38;5093098;28;20118;-45
2023/06/06 07:35:13;;;;;;;11.45;6.28;;;;;;;24.44;39.01;102322.69;5092980;28;20111;-46
2023/06/06 07:37:39;;;;;;;10.77;5.68;;;;;;;25.93;35.92;102310.16;5092880;28;20093;-51
2023/06/06 07:40:07;;;;;;;9.18;5.53;;;;;;;26.17;35.44;102317.50;5093183;28;20028;-45
2023/06/06 07:42:33;;;;;;;12.05;6.25;;;;;;;26.27;34.31;102315.47;5092467;28;20043;-45
2023/06/06 07:44:58;;;;;;;10.18;5.88;;;;;;;26.53;34.25;102315.59;5091880;28;20024;-46
2023/06/06 07:47:24;;;;;;;10.02;5.60;;;;;;;27.18;33.75;102307.31;5093009;28;20070;-48
2023/06/06 07:49:50;;;;;;;11.43;6.30;;;;;;;26.67;34.24;102313.34;5092482;28;20028;-45
2023/06/06 07:52:16;;;;;;;8.90;5.97;;;;;;;27.34;32.42;102308.53;5092676;28;20032;-46
2023/06/06 07:54:42;;;;;;;13.15;6.50;;;;;;;26.73;34.09;102306.94;5091849;28;20372;-53
2023/06/06 07:57:08;;;;;;;13.90;6.10;;;;;;;26.53;34.35;102312.91;5092735;28;20116;-47
2023/06/06 07:59:34;;;;;;;11.70;6.15;;;;;;;26.64;34.49;102306.31;5091911;28;20067;-50
2023/06/06 08:02:00;;;;;;;10.35;5.85;;;;;;;27.05;33.54;102312.19;5091250;28;20103;-46
2023/06/06 08:04:25;;;;;;;14.25;6.55;;;;;;;25.24;37.40;102314.63;5091576;28;20036;-45
2023/06/06 08:06:51;;;;;;;12.43;6.18;;;;;;;25.92;35.48;102308.44;5092146;28;20042;-46
2023/06/06 08:09:16;;;;;;;10.77;5.88;;;;;;;26.01;35.77;102305.50;5092153;28;20046;-49
2023/06/06 08:11:42;;;;;;;12.25;5.57;;;;;;;26.39;34.99;102302.63;5091910;28;20145;-45
2023/06/06 08:14:07;;;;;;;13.35;5.68;;;;;;;26.15;35.68;102312.22;5091735;28;20107;-46
2023/06/06 08:16:33;;;;;;;11.38;6.00;;;;;;;26.07;35.15;102302.66;5091803;28;20402;-50
2023/06/06 08:18:59;;;;;;;12.13;6.22;;;;;;;26.13;34.78;102310.50;5092115;28;20040;-52
2023/06/06 08:21:25;;;;;;;12.70;6.03;;;;;;;26.76;33.54;102301.50;5091505;28;20044;-46
2023/06/06 08:23:50;;;;;;;12.02;6.00;;;;;;;27.66;32.48;102299.44;5091634;28;20040;-46
2023/06/06 08:26:15;;;;;;;9.38;5.10;;;;;;;27.83;32.72;102305.94;5091839;28;20040;-47
2023/06/06 08:28:41;;;;;;;10.02;5.82;;;;;;;26.71;34.42;102309.69;5091151;28;20073;-50
2023/06/06 08:31:08;;;;;;;13.32;5.97;;;;;;;27.35;33.28;102304.94;5090972;28;20036;-50
2023/06/06 08:33:33;;;;;;;10.80;6.00;;;;;;;27.53;32.77;102308.81;5090831;28;20559;-48
2023/06/06 08:35:58;;;;;;;10.18;5.90;;;;;;;26.80;33.98;102309.38;5092047;28;20039;-46
2023/06/06 08:38:24;;;;;;;8.80;6.50;;;;;;;25.71;35.62;102301.88;5091678;28;20085;-46
2023/06/06 08:40:54;;;;;;;10.55;6.00;;;;;;;25.18;38.29;102304.13;5091815;28;20071;-46
2023/06/06 08:43:21;;;;;;;13.45;7.05;;;;;;;24.65;38.32;102298.19;5091525;28;20024;-46
2023/06/06 08:45:56;;;;;;;14.85;7.50;;;;;;;24.09;40.10;102302.03;5091342;28;20071;-47
2023/06/06 08:48:26;;;;;;;17.73;7.97;;;;;;;23.44;40.92;102298.78;5093414;28;20024;-47
2023/06/06 08:50:56;;;;;;;12.48;7.03;;;;;;;22.93;42.52;102305.81;5093725;28;20047;-54
2023/06/06 08:53:22;;;;;;;13.70;7.50;;;;;;;22.96;42.41;102299.59;5091026;28;20044;-49
2023/06/06 08:55:47;;;;;;;16.23;7.60;;;;;;;23.11;41.79;102298.50;5092533;28;20024;-46
2023/06/06 08:58:14;;;;;;;14.27;7.35;;;;;;;22.68;43.94;102304.41;5093764;28;20032;-45
2023/06/06 09:00:39;;;;;;;13.32;6.47;;;;;;;23.31;42.50;102307.00;5091454;28;20426;-48
2023/06/06 09:03:08;;;;;;;13.45;7.45;;;;;;;23.30;41.63;102298.13;5091681;28;20040;-50
2023/06/06 09:05:38;;;;;;;17.83;7.75;;;;;;;22.93;42.78;102305.81;5090545;28;20111;-49
2023/06/06 09:08:04;;;;;;;14.60;7.45;;;;;;;22.94;43.34;102304.03;5091486;28;20066;-50
2023/06/06 09:10:29;;;;;;;14.77;7.50;;;;;;;22.93;43.38;102297.84;5091005;28;20113;-48
2023/06/06 09:12:55;;;;;;;15.75;7.40;;;;;;;23.33;42.22;102290.13;5089420;28;20561;-45
2023/06/06 09:15:20;;;;;;;14.73;6.97;;;;;;;23.66;41.87;102293.13;5090597;28;20036;-44
2023/06/06 09:17:46;;;;;;;14.07;7.47;;;;;;;23.21;43.08;102292.97;5089363;28;20036;-48
2023/06/06 09:20:15;;;;;;;15.80;7.28;;;;;;;23.52;42.26;102293.38;5088640;28;20401;-48
2023/06/06 09:22:45;;;;;;;17.83;7.90;;;;;;;23.47;42.10;102289.03;5090731;28;20040;-48
2023/06/06 09:25:24;;;;;;;14.93;7.43;;;;;;;22.94;43.47;102298.72;5090607;28;20028;-45
2023/06/06 09:27:58;;;;;;;13.88;6.88;;;;;;;23.11;43.51;102291.38;5090297;28;20040;-49
2023/06/06 09:30:25;;;;;;;18.67;7.75;;;;;;;23.42;42.42;102292.59;5091170;28;20151;-48
2023/06/06 09:32:58;;;;;;;14.18;6.60;;;;;;;23.86;42.50;102282.97;5089455;28;20127;-48
2023/06/06 09:35:44;;;;;;;22.13;7.05;;;;;;;23.71;42.11;102291.25;5089430;28;20051;-46
2023/06/06 09:38:18;;;;;;;16.77;7.60;;;;;;;23.12;43.79;102284.25;5091114;28;20039;-47
2023/06/06 09:40:51;;;;;;;17.30;7.93;;;;;;;23.44;42.71;102282.81;5090879;28;20036;-47
2023/06/06 09:43:23;;;;;;;17.35;7.47;;;;;;;23.65;42.24;102286.03;5090666;28;20116;-49
2023/06/06 09:45:50;;;;;;;14.25;7.38;;;;;;;23.52;43.24;102287.16;5091360;28;20493;-47
2023/06/06 09:48:27;;;;;;;12.48;6.97;;;;;;;23.56;43.15;102281.75;5091591;28;20039;-46
2023/06/06 09:50:53;;;;;;;13.45;7.55;;;;;;;23.67;42.13;102279.75;5090714;28;20040;-45
2023/06/06 09:53:23;;;;;;;13.90;7.20;;;;;;;23.16;43.35;102285.97;5090185;28;20545;-44
2023/06/06 09:55:49;;;;;;;13.93;6.88;;;;;;;23.13;43.59;102283.34;5089918;28;20028;-48
2023/06/06 09:58:19;;;;;;;13.75;7.55;;;;;;;23.19;43.60;102292.13;5089347;28;20081;-45
2023/06/06 10:00:45;;;;;;;12.25;7.50;;;;;;;22.93;44.40;102281.03;5089727;28;20075;-45
2023/06/06 10:03:18;;;;;;;13.93;7.88;;;;;;;22.70;43.97;102293.72;5090461;28;20040;-45
2023/06/06 10:05:43;;;;;;;13.65;7.47;;;;;;;23.19;44.13;102288.56;5089667;28;20115;-45
2023/06/06 10:08:09;;;;;;;16.40;7.82;;;;;;;23.09;43.48;102282.53;5090201;28;20501;-46
2023/06/06 10:10:36;;;;;;;16.60;7.60;;;;;;;23.51;43.38;102280.97;5089949;28;20036;-49
2023/06/06 10:13:03;;;;;;;17.17;7.68;;;;;;;23.30;43.41;102290.16;5090590;28;20407;-44
2023/06/06 10:15:29;;;;;;;14.50;7.68;;;;;;;23.27;42.87;102279.56;5087928;28;20497;-49
2023/06/06 10:17:56;;;;;;;12.30;7.20;;;;;;;23.69;42.49;102290.41;5090030;28;20036;-48
2023/06/06 10:20:22;;;;;;;14.05;7.72;;;;;;;23.84;42.13;102285.69;5090605;28;20035;-47
2023/06/06 10:22:47;;;;;;;10.55;6.80;;;;;;;23.95;41.79;102277.47;5091875;28;20036;-52
2023/06/06 10:25:14;;;;;;;12.27;6.95;;;;;;;24.15;42.16;102280.59;5089921;28;20039;-45
2023/06/06 10:27:46;;;;;;;11.07;7.30;;;;;;;24.30;42.15;102276.75;5091847;28;20051;-46
2023/06/06 10:30:14;;;;;;;14.10;6.97;;;;;;;23.99;42.16;102275.59;5092642;28;20101;-46
2023/06/06 10:33:22;;;;;;;15.20;6.38;;;;;;;24.31;42.33;102278.53;5091278;28;20042;-48
2023/06/06 10:35:53;;;;;;;15.48;7.97;;;;;;;23.41;42.17;102266.03;5076770;28;20032;-49
2023/06/06 10:38:19;;;;;;;12.82;6.70;;;;;;;23.90;42.65;102276.69;5091511;28;20032;-49
2023/06/06 10:40:55;;;;;;;11.27;6.65;;;;;;;24.19;42.55;102271.66;5092393;28;20060;-45
2023/06/06 10:43:32;;;;;;;19.80;8.07;;;;;;;23.41;42.81;102280.22;5092350;28;20133;-47
2023/06/06 10:45:59;;;;;;;17.00;7.20;;;;;;;23.81;42.60;102271.53;5092008;28;20034;-48
2023/06/06 10:48:43;;;;;;;17.38;7.90;;;;;;;23.93;42.63;102265.94;5088831;28;20032;-46
2023/06/06 10:51:23;;;;;;;22.23;7.40;;;;;;;24.11;41.47;102267.38;5088763;28;20513;-48
2023/06/06 10:54:15;;;;;;;10.85;6.65;;;;;;;24.19;40.86;102266.34;5089257;28;20031;-46
2023/06/06 10:56:54;;;;;;;13.02;7.43;;;;;;;23.95;40.92;102264.16;5091336;28;20486;-45
2023/06/06 10:59:31;;;;;;;15.38;7.43;;;;;;;24.11;41.05;102260.25;5090455;28;20494;-47
2023/06/06 11:01:57;;;;;;;16.70;7.40;;;;;;;24.03;42.24;102261.34;5089483;28;20170;-47
2023/06/06 11:04:27;;;;;;;12.77;6.70;;;;;;;24.12;42.01;102261.13;5089156;28;20119;-46
2023/06/06 11:06:58;;;;;;;14.13;7.72;;;;;;;24.16;41.66;102262.81;5089168;28;20038;-49
2023/06/06 11:09:32;;;;;;;15.48;7.35;;;;;;;24.47;41.08;102269.28;5089390;28;20039;-47
2023/06/06 11:12:20;;;;;;;16.15;7.05;;;;;;;24.46;41.00;102264.84;5089315;28;20042;-48
2023/06/06 11:14:54;;;;;;;17.40;7.10;;;;;;;24.79;40.73;102259.66;5082839;28;20062;-47
2023/06/06 11:17:21;;;;;;;11.27;6.85;;;;;;;24.80;41.59;102264.09;5089497;28;20418;-44
2023/06/06 11:19:51;;;;;;;16.23;7.60;;;;;;;24.64;41.03;102258.25;5089038;28;20029;-46
2023/06/06 11:22:23;;;;;;;12.82;7.05;;;;;;;24.98;39.96;102256.56;5089662;28;20498;-48